createdAt,value
2022-09-23T00:00:57.896Z,101875.66
2022-09-23T00:03:24.383Z,101883.28
2022-09-23T00:05:59.127Z,101867.22
2022-09-23T00:08:25.691Z,101873.06
2022-09-23T00:10:52.230Z,101860.66
2022-09-23T00:13:18.880Z,101862.75
2022-09-23T00:15:46.809Z,101872.69
2022-09-23T00:18:13.457Z,101871.19
2022-09-23T00:20:40.538Z,101867.66
2022-09-23T00:23:07.368Z,101867.66
2022-09-23T00:25:34.005Z,101850.03
2022-09-23T00:28:00.564Z,101847.28
2022-09-23T00:30:27.344Z,101858.47
2022-09-23T00:32:54.027Z,101852.34
2022-09-23T00:35:20.568Z,101851.56
2022-09-23T00:37:47.059Z,101852.66
2022-09-23T00:40:13.744Z,101848.81
2022-09-23T00:42:48.146Z,101844.97
2022-09-23T00:45:15.914Z,101844.50
2022-09-23T00:47:54.952Z,101844.81
2022-09-23T00:50:25.998Z,101838.72
2022-09-23T00:52:56.817Z,101836.25
2022-09-23T00:55:28.016Z,101836.25
2022-09-23T00:57:56.750Z,101828.28
2022-09-23T01:00:23.735Z,101827.53
2022-09-23T01:02:51.284Z,101829.66
2022-09-23T01:05:18.399Z,101822.88
2022-09-23T01:07:45.912Z,101817.88
2022-09-23T01:10:16.275Z,101825.66
2022-09-23T01:12:58.149Z,101824.13
2022-09-23T01:15:31.181Z,101829.31
2022-09-23T01:18:04.384Z,101834.66
2022-09-23T01:20:36.894Z,101823.34
2022-09-23T01:23:37.808Z,101823.94
2022-09-23T01:26:16.486Z,101828.69
2022-09-23T01:29:04.746Z,101819.63
2022-09-23T01:31:53.095Z,101822.06
2022-09-23T01:34:29.049Z,101823.00
2022-09-23T01:37:08.784Z,101814.22
2022-09-23T01:39:40.279Z,101813.47
2022-09-23T01:42:17.322Z,101808.59
2022-09-23T01:44:49.847Z,101806.88
2022-09-23T01:47:38.516Z,101807.97
2022-09-23T01:50:41.661Z,101802.13
2022-09-23T01:53:29.573Z,101808.69
2022-09-23T01:56:05.114Z,101794.28
2022-09-23T01:58:56.812Z,101800.41
2022-09-23T02:02:00.319Z,101805.13
2022-09-23T02:04:39.719Z,101802.38
2022-09-23T02:07:15.207Z,101801.16
2022-09-23T02:09:45.593Z,101801.75
2022-09-23T02:12:17.453Z,101805.44
2022-09-23T02:14:56.477Z,101800.50
2022-09-23T02:17:34.806Z,101794.53
2022-09-23T02:20:07.813Z,101792.06
2022-09-23T02:23:28.262Z,101788.41
2022-09-23T02:26:17.231Z,101783.97
2022-09-23T02:28:55.710Z,101780.47
2022-09-23T02:31:37.268Z,101768.56
2022-09-23T02:34:06.923Z,101767.78
2022-09-23T02:36:49.686Z,101764.69
2022-09-23T02:39:18.307Z,101760.25
2022-09-23T02:42:07.029Z,101764.84
2022-09-23T02:44:34.051Z,101762.84
2022-09-23T02:47:00.842Z,101751.94
2022-09-23T02:49:29.554Z,101756.88
2022-09-23T02:51:57.456Z,101749.09
2022-09-23T02:54:28.971Z,101750.41
2022-09-23T02:56:55.646Z,101754.38
2022-09-23T02:59:23.799Z,101747.59
2022-09-23T03:02:16.820Z,101747.81
2022-09-23T03:05:05.643Z,101742.88
2022-09-23T03:07:50.813Z,101744.84
2022-09-23T03:10:39.027Z,101739.97
2022-09-23T03:13:35.388Z,101745.75
2022-09-23T03:16:16.702Z,101739.72
2022-09-23T03:18:56.758Z,101737.03
2022-09-23T03:21:32.262Z,101733.94
2022-09-23T03:24:02.837Z,101736.53
2022-09-23T03:26:32.600Z,101733.28
2022-09-23T03:29:04.022Z,101730.06
2022-09-23T03:31:32.551Z,101725.94
2022-09-23T03:34:01.484Z,101729.00
2022-09-23T03:36:53.603Z,101721.97
2022-09-23T03:39:40.861Z,101718.16
2022-09-23T03:42:16.768Z,101730.34
2022-09-23T03:44:45.667Z,101725.63
2022-09-23T03:47:14.636Z,101724.28
2022-09-23T03:49:44.323Z,101724.56
2022-09-23T03:52:11.229Z,101715.84
2022-09-23T03:54:37.805Z,101720.44
2022-09-23T03:57:04.381Z,101712.38
2022-09-23T03:59:31.449Z,101713.44
2022-09-23T04:01:59.612Z,101715.72
2022-09-23T04:04:32.416Z,101712.06
2022-09-23T04:06:58.898Z,101708.25
2022-09-23T04:09:25.602Z,101710.84
2022-09-23T04:11:52.846Z,101709.59
2022-09-23T04:14:20.887Z,101714.78
2022-09-23T04:16:48.399Z,101709.41
2022-09-23T04:19:15.793Z,101707.19
2022-09-23T04:21:44.139Z,101712.50
2022-09-23T04:24:11.659Z,101712.72
2022-09-23T04:26:38.671Z,101709.66
2022-09-23T04:29:06.206Z,101704.47
2022-09-23T04:31:34.437Z,101705.22
2022-09-23T04:34:01.190Z,101707.81
2022-09-23T04:36:29.253Z,101706.47
2022-09-23T04:38:56.493Z,101704.94
2022-09-23T04:41:23.052Z,101694.72
2022-09-23T04:43:49.614Z,101692.25
2022-09-23T04:46:16.506Z,101691.69
2022-09-23T04:48:43.501Z,101693.53
2022-09-23T04:51:18.134Z,101696.59
2022-09-23T04:53:46.818Z,101696.13
2022-09-23T04:56:24.721Z,101699.03
2022-09-23T04:58:51.528Z,101695.53
2022-09-23T05:01:20.130Z,101699.38
2022-09-23T05:03:46.909Z,101698.59
2022-09-23T05:06:14.493Z,101687.44
2022-09-23T05:08:42.274Z,101691.25
2022-09-23T05:11:09.127Z,101692.50
2022-09-23T05:13:35.652Z,101687.97
2022-09-23T05:16:04.761Z,101686.44
2022-09-23T05:18:33.193Z,101694.34
2022-09-23T05:20:59.864Z,101688.72
2022-09-23T05:23:27.505Z,101686.94
2022-09-23T05:26:05.992Z,101691.81
2022-09-23T05:28:34.356Z,101697.16
2022-09-23T05:31:20.608Z,101691.81
2022-09-23T05:33:52.894Z,101686.19
2022-09-23T05:36:21.385Z,101697.34
2022-09-23T05:38:49.953Z,101703.00
2022-09-23T05:41:18.418Z,101696.13
2022-09-23T05:43:45.135Z,101695.06
2022-09-23T05:46:14.795Z,101693.72
2022-09-23T05:48:42.467Z,101699.81
2022-09-23T05:51:12.879Z,101696.94
2022-09-23T05:53:41.000Z,101690.81
2022-09-23T05:56:07.962Z,101701.81
2022-09-23T05:58:34.740Z,101704.28
2022-09-23T06:01:01.233Z,101708.88
2022-09-23T06:03:27.821Z,101704.91
2022-09-23T06:05:55.988Z,101703.69
2022-09-23T06:08:23.602Z,101702.75
2022-09-23T06:10:54.468Z,101702.94
2022-09-23T06:13:21.257Z,101701.88
2022-09-23T06:15:48.295Z,101698.66
2022-09-23T06:18:15.036Z,101700.19
2022-09-23T06:20:41.546Z,101694.09
2022-09-23T06:23:10.993Z,101702.50
2022-09-23T06:25:38.581Z,101696.22
2022-09-23T06:28:05.804Z,101697.16
2022-09-23T06:30:35.008Z,101698.06
2022-09-23T06:33:02.365Z,101696.72
2022-09-23T06:35:29.276Z,101692.88
2022-09-23T06:37:56.015Z,101691.97
2022-09-23T06:40:22.932Z,101698.72
2022-09-23T06:43:00.269Z,101697.63
2022-09-23T06:45:27.802Z,101699.31
2022-09-23T06:47:58.390Z,101703.28
2022-09-23T06:50:26.669Z,101706.06
2022-09-23T06:52:57.139Z,101706.22
2022-09-23T06:55:24.750Z,101702.97
2022-09-23T06:57:51.473Z,101694.72
2022-09-23T07:00:18.440Z,101698.69
2022-09-23T07:02:45.423Z,101703.13
2022-09-23T07:05:13.056Z,101700.94
2022-09-23T07:07:39.697Z,101701.41
2022-09-23T07:10:07.032Z,101701.28
2022-09-23T07:12:34.161Z,101693.59
2022-09-23T07:15:00.946Z,101690.50
2022-09-23T07:17:27.792Z,101691.44
2022-09-23T07:19:57.423Z,101692.75
2022-09-23T07:22:25.761Z,101691.97
2022-09-23T07:24:56.055Z,101682.00
2022-09-23T07:27:27.540Z,101685.78
2022-09-23T07:29:55.066Z,101679.34
2022-09-23T07:32:23.050Z,101684.19
2022-09-23T07:34:49.867Z,101682.94
2022-09-23T07:37:17.657Z,101695.28
2022-09-23T07:39:44.902Z,101685.00
2022-09-23T07:42:13.299Z,101690.84
2022-09-23T07:44:43.280Z,101691.50
2022-09-23T07:47:09.855Z,101690.25
2022-09-23T07:49:36.719Z,101693.72
2022-09-23T07:52:04.885Z,101700.59
2022-09-23T07:54:31.912Z,101700.94
2022-09-23T07:56:59.237Z,101703.81
2022-09-23T07:59:27.353Z,101701.66
2022-09-23T08:01:55.166Z,101702.56
2022-09-23T08:04:32.786Z,101695.31
2022-09-23T08:07:01.379Z,101695.78
2022-09-23T08:09:34.347Z,101696.22
2022-09-23T08:12:01.582Z,101692.38
2022-09-23T08:14:28.191Z,101693.91
2022-09-23T08:16:54.846Z,101704.69
2022-09-23T08:19:21.577Z,101697.78
2022-09-23T08:21:48.081Z,101703.53
2022-09-23T08:24:19.827Z,101697.75
2022-09-23T08:26:48.393Z,101699.06
2022-09-23T08:29:19.262Z,101697.09
2022-09-23T08:31:46.198Z,101702.03
2022-09-23T08:34:13.315Z,101701.53
2022-09-23T08:36:39.875Z,101704.19
2022-09-23T08:39:06.879Z,101704.25
2022-09-23T08:42:10.923Z,101700.53
2022-09-23T08:44:49.498Z,101696.28
2022-09-23T08:47:23.421Z,101702.34
2022-09-23T08:50:07.139Z,101708.16
2022-09-23T08:52:52.763Z,101704.97
2022-09-23T08:55:20.860Z,101704.22
2022-09-23T08:58:26.841Z,101702.72
2022-09-23T09:01:02.585Z,101705.44
2022-09-23T09:03:53.915Z,101703.44
2022-09-23T09:06:28.270Z,101703.59
2022-09-23T09:08:59.351Z,101701.63
2022-09-23T09:11:33.336Z,101702.75
2022-09-23T09:14:38.582Z,101703.06
2022-09-23T09:17:10.267Z,101697.00
2022-09-23T09:19:53.457Z,101689.09
2022-09-23T09:25:15.087Z,101690.38
2022-09-23T09:27:42.210Z,101684.06
2022-09-23T09:30:14.837Z,101683.94
2022-09-23T09:33:03.404Z,101680.47
2022-09-23T09:35:43.194Z,101676.34
2022-09-23T09:38:09.707Z,101676.50
2022-09-23T09:40:44.552Z,101679.84
2022-09-23T09:43:25.637Z,101680.00
2022-09-23T09:46:26.649Z,101672.22
2022-09-23T09:49:00.758Z,101681.94
2022-09-23T09:51:29.369Z,101673.84
2022-09-23T09:54:17.144Z,101677.03
2022-09-23T09:56:44.840Z,101679.75
2022-09-23T09:59:18.122Z,101674.56
2022-09-23T10:01:46.215Z,101666.00
2022-09-23T10:04:23.760Z,101665.72
2022-09-23T10:07:13.997Z,101665.84
2022-09-23T10:09:48.808Z,101663.69
2022-09-23T10:12:18.658Z,101669.78
2022-09-23T10:14:50.589Z,101656.34
2022-09-23T10:17:31.883Z,101651.09
2022-09-23T10:20:01.035Z,101644.78
2022-09-23T10:22:32.850Z,101649.75
2022-09-23T10:25:07.463Z,101638.47
2022-09-23T10:27:36.475Z,101643.44
2022-09-23T10:30:23.893Z,101638.59
2022-09-23T10:32:53.184Z,101642.41
2022-09-23T10:35:24.550Z,101641.69
2022-09-23T10:38:00.019Z,101642.81
2022-09-23T10:40:48.823Z,101651.13
2022-09-23T10:43:40.634Z,101631.94
2022-09-23T10:46:36.005Z,101641.38
2022-09-23T10:49:27.412Z,101643.28
2022-09-23T10:52:32.067Z,101642.53
2022-09-23T10:55:10.769Z,101647.06
2022-09-23T10:57:57.741Z,101637.25
2022-09-23T11:00:46.497Z,101638.78
2022-09-23T11:03:37.062Z,101641.41
2022-09-23T11:06:28.418Z,101638.41
2022-09-23T11:09:18.879Z,101642.13
2022-09-23T11:11:51.396Z,101642.91
2022-09-23T11:14:41.202Z,101642.50
2022-09-23T11:17:25.935Z,101637.22
2022-09-23T11:20:03.657Z,101647.81
2022-09-23T11:22:53.356Z,101634.22
2022-09-23T11:25:41.035Z,101636.06
2022-09-23T11:28:25.427Z,101637.94
2022-09-23T11:31:07.271Z,101631.53
2022-09-23T11:34:09.617Z,101632.66
2022-09-23T11:36:47.183Z,101629.22
2022-09-23T11:39:29.063Z,101624.69
2022-09-23T11:41:59.888Z,101625.03
2022-09-23T11:44:32.150Z,101622.28
2022-09-23T11:47:08.212Z,101613.59
2022-09-23T11:49:42.327Z,101615.09
2022-09-23T11:52:19.595Z,101611.63
2022-09-23T11:54:52.969Z,101611.16
2022-09-23T11:57:42.636Z,101602.78
2022-09-23T12:00:19.190Z,101608.75
2022-09-23T12:03:04.555Z,101612.06
2022-09-23T12:05:40.581Z,101609.41
2022-09-23T12:08:12.134Z,101598.75
2022-09-23T12:10:58.914Z,101603.25
2022-09-23T12:13:41.789Z,101598.34
2022-09-23T12:16:26.904Z,101600.13
2022-09-23T12:18:53.377Z,101601.56
2022-09-23T12:22:08.149Z,101599.97
2022-09-23T12:25:07.877Z,101596.28
2022-09-23T12:27:45.302Z,101589.69
2022-09-23T12:30:25.172Z,101586.97
2022-09-23T12:32:51.999Z,101576.69
2022-09-23T12:35:41.314Z,101576.63
2022-09-23T12:38:25.802Z,101578.44
2022-09-23T12:40:56.373Z,101573.47
2022-09-23T12:43:31.596Z,101573.84
2022-09-23T12:46:18.958Z,101571.47
2022-09-23T12:48:58.030Z,101565.88
2022-09-23T12:51:26.936Z,101560.81
2022-09-23T12:53:55.265Z,101565.63
2022-09-23T12:56:43.370Z,101565.19
2022-09-23T12:59:31.914Z,101563.78
2022-09-23T13:02:30.534Z,101557.78
2022-09-23T13:05:34.157Z,101559.03
2022-09-23T13:08:12.415Z,101559.66
2022-09-23T13:10:54.356Z,101560.84
2022-09-23T13:13:26.709Z,101552.47
2022-09-23T13:15:54.953Z,101557.69
2022-09-23T13:18:21.387Z,101554.72
2022-09-23T13:20:52.858Z,101559.69
2022-09-23T13:23:27.864Z,101553.38
2022-09-23T13:25:57.638Z,101554.94
2022-09-23T13:28:36.842Z,101553.50
2022-09-23T13:31:15.292Z,101558.00
2022-09-23T13:33:53.136Z,101546.59
2022-09-23T13:36:21.172Z,101557.31
2022-09-23T13:38:48.311Z,101544.06
2022-09-23T13:41:20.605Z,101540.19
2022-09-23T13:43:53.571Z,101542.41
2022-09-23T13:46:23.550Z,101542.63
2022-09-23T13:48:54.866Z,101544.06
2022-09-23T13:51:31.629Z,101539.44
2022-09-23T13:54:01.488Z,101533.91
2022-09-23T13:56:31.584Z,101543.19
2022-09-23T13:59:27.214Z,101537.03
2022-09-23T14:02:16.881Z,101540.66
2022-09-23T14:04:44.605Z,101536.94
2022-09-23T14:07:14.193Z,101525.94
2022-09-23T14:09:46.417Z,101531.19
2022-09-23T14:12:13.251Z,101529.38
2022-09-23T14:14:41.939Z,101517.75
2022-09-23T14:17:10.176Z,101522.94
2022-09-23T14:19:37.323Z,101524.84
2022-09-23T14:22:03.950Z,101517.41
2022-09-23T14:24:34.535Z,101518.78
2022-09-23T14:27:04.453Z,101510.56
2022-09-23T14:29:33.960Z,101504.81
2022-09-23T14:32:07.674Z,101509.81
2022-09-23T14:34:53.694Z,101505.56
2022-09-23T14:37:46.313Z,101502.28
2022-09-23T14:40:18.838Z,101506.16
2022-09-23T14:42:48.846Z,101504.19
2022-09-23T14:45:22.813Z,101496.53
2022-09-23T14:48:01.127Z,101497.34
2022-09-23T14:50:39.324Z,101500.22
2022-09-23T14:53:41.301Z,101498.63
2022-09-23T14:56:08.819Z,101495.59
2022-09-23T14:58:53.051Z,101501.72
2022-09-23T15:01:32.648Z,101492.25
2022-09-23T15:04:09.378Z,101495.72
2022-09-23T15:06:42.836Z,101484.41
2022-09-23T15:09:17.004Z,101485.63
2022-09-23T15:11:43.592Z,101480.81
2022-09-23T15:14:36.226Z,101485.19
2022-09-23T15:16:57.505Z,101481.72
2022-09-23T15:19:24.218Z,101484.13
2022-09-23T15:21:52.952Z,101476.59
2022-09-23T15:24:41.668Z,101472.56
2022-09-23T15:27:24.795Z,101479.78
2022-09-23T15:29:52.599Z,101481.34
2022-09-23T15:32:19.728Z,101474.59
2022-09-23T15:34:49.272Z,101477.28
2022-09-23T15:37:15.775Z,101482.22
2022-09-23T15:39:43.033Z,101475.16
2022-09-23T15:42:10.284Z,101481.25
2022-09-23T15:44:38.018Z,101471.47
2022-09-23T15:47:04.992Z,101471.94
2022-09-23T15:49:34.974Z,101468.56
2022-09-23T15:52:04.104Z,101463.34
2022-09-23T15:54:32.524Z,101459.59
2022-09-23T15:57:00.518Z,101463.81
2022-09-23T15:59:28.800Z,101462.41
2022-09-23T16:01:56.605Z,101466.63
2022-09-23T16:04:23.721Z,101467.09
2022-09-23T16:06:50.438Z,101464.84
2022-09-23T16:09:16.902Z,101475.53
2022-09-23T16:11:46.348Z,101475.94
2022-09-23T16:14:17.601Z,101469.63
2022-09-23T16:16:48.046Z,101476.50
2022-09-23T16:19:16.247Z,101474.66
2022-09-23T16:21:43.224Z,101470.16
2022-09-23T16:24:25.957Z,101472.88
2022-09-23T16:26:59.818Z,101467.22
2022-09-23T16:29:27.588Z,101480.16
2022-09-23T16:31:55.718Z,101473.00
2022-09-23T16:34:22.339Z,101478.75
2022-09-23T16:36:49.044Z,101473.88
2022-09-23T16:39:15.880Z,101473.56
2022-09-23T16:41:43.565Z,101473.59
2022-09-23T16:44:12.475Z,101474.78
2022-09-23T16:46:42.947Z,101475.56
2022-09-23T16:49:12.102Z,101471.50
2022-09-23T16:51:39.977Z,101481.72
2022-09-23T16:54:11.990Z,101475.31
2022-09-23T16:56:44.386Z,101480.25
2022-09-23T16:59:15.104Z,101475.75
2022-09-23T17:02:00.468Z,101475.41
2022-09-23T17:04:27.741Z,101473.94
2022-09-23T17:06:54.432Z,101475.84
2022-09-23T17:09:24.670Z,101480.75
2022-09-23T17:12:15.619Z,101465.69
2022-09-23T17:14:43.207Z,101475.84
2022-09-23T17:17:09.722Z,101469.09
2022-09-23T17:19:38.160Z,101462.31
2022-09-23T17:22:04.705Z,101466.06
2022-09-23T17:24:31.400Z,101466.47
2022-09-23T17:26:58.979Z,101467.59
2022-09-23T17:29:26.883Z,101469.47
2022-09-23T17:31:54.210Z,101456.69
2022-09-23T17:34:20.828Z,101450.66
2022-09-23T17:36:47.402Z,101461.97
2022-09-23T17:39:14.078Z,101470.25
2022-09-23T17:41:42.797Z,101464.22
2022-09-23T17:44:11.360Z,101460.81
2022-09-23T17:46:37.912Z,101456.31
2022-09-23T17:49:04.860Z,101459.28
2022-09-23T17:51:31.519Z,101454.03
2022-09-23T17:53:58.035Z,101457.78
2022-09-23T17:56:26.391Z,101458.91
2022-09-23T17:58:53.957Z,101454.78
2022-09-23T18:01:23.319Z,101451.75
2022-09-23T18:03:57.913Z,101449.81
2022-09-23T18:06:26.948Z,101455.09
2022-09-23T18:08:53.671Z,101449.44
2022-09-23T18:11:29.131Z,101450.91
2022-09-23T18:13:58.410Z,101447.91
2022-09-23T18:16:27.535Z,101451.25
2022-09-23T18:18:56.208Z,101451.25
2022-09-23T18:21:24.594Z,101452.72
2022-09-23T18:23:51.613Z,101456.84
2022-09-23T18:26:20.890Z,101454.19
2022-09-23T18:28:48.162Z,101461.31
2022-09-23T18:31:16.277Z,101465.41
2022-09-23T18:33:42.957Z,101457.88
2022-09-23T18:36:10.092Z,101468.75
2022-09-23T18:38:36.754Z,101464.59
2022-09-23T18:41:03.369Z,101460.44
2022-09-23T18:43:41.425Z,101460.81
2022-09-23T18:46:15.276Z,101453.63
2022-09-23T18:49:01.528Z,101459.59
2022-09-23T18:51:29.460Z,101460.38
2022-09-23T18:54:01.982Z,101449.78
2022-09-23T18:56:49.646Z,101456.19
2022-09-23T18:59:19.601Z,101458.81
2022-09-23T19:01:48.579Z,101462.16
2022-09-23T19:04:18.595Z,101460.25
2022-09-23T19:06:45.652Z,101457.97
2022-09-23T19:09:12.346Z,101458.72
2022-09-23T19:11:39.513Z,101456.41
2022-09-23T19:14:10.939Z,101460.53
2022-09-23T19:16:39.238Z,101462.78
2022-09-23T19:19:06.105Z,101457.88
2022-09-23T19:21:33.512Z,101465.59
2022-09-23T19:24:05.575Z,101459.97
2022-09-23T19:26:37.840Z,101455.06
2022-09-23T19:29:06.136Z,101451.72
2022-09-23T19:31:36.940Z,101453.53
2022-09-23T19:34:10.763Z,101461.75
2022-09-23T19:36:39.584Z,101452.34
2022-09-23T19:39:16.962Z,101460.22
2022-09-23T19:41:43.856Z,101456.03
2022-09-23T19:44:10.439Z,101446.97
2022-09-23T19:46:38.989Z,101455.19
2022-09-23T19:49:07.266Z,101462.69
2022-09-23T19:51:34.851Z,101454.41
2022-09-23T19:54:03.319Z,101455.56
2022-09-23T19:56:31.958Z,101455.84
2022-09-23T19:58:59.402Z,101454.31
2022-09-23T20:01:27.773Z,101456.97
2022-09-23T20:03:54.427Z,101452.81
2022-09-23T20:06:21.772Z,101450.91
2022-09-23T20:08:49.477Z,101452.34
2022-09-23T20:11:18.973Z,101458.75
2022-09-23T20:13:50.045Z,101451.13
2022-09-23T20:16:19.710Z,101451.78
2022-09-23T20:18:47.234Z,101442.72
2022-09-23T20:21:15.102Z,101444.09
2022-09-23T20:23:42.340Z,101446.38
2022-09-23T20:26:29.300Z,101447.91
2022-09-23T20:28:56.005Z,101438.84
2022-09-23T20:31:23.516Z,101445.50
2022-09-23T20:33:58.311Z,101434.97
2022-09-23T20:36:26.729Z,101425.22
2022-09-23T20:38:57.474Z,101427.38
2022-09-23T20:41:23.996Z,101427.22
2022-09-23T20:43:54.727Z,101423.22
2022-09-23T20:46:24.199Z,101419.88
2022-09-23T20:48:50.872Z,101421.75
2022-09-23T20:51:17.893Z,101419.53
2022-09-23T20:53:45.724Z,101415.78
2022-09-23T20:56:13.389Z,101415.47
2022-09-23T20:58:40.288Z,101411.97
2022-09-23T21:01:11.576Z,101408.94
2022-09-23T21:03:40.294Z,101413.38
2022-09-23T21:06:08.685Z,101407.47
2022-09-23T21:08:36.842Z,101405.56
2022-09-23T21:11:09.257Z,101410.00
2022-09-23T21:13:35.817Z,101407.81
2022-09-23T21:16:12.238Z,101405.06
2022-09-23T21:18:38.879Z,101408.81
2022-09-23T21:21:06.343Z,101405.81
2022-09-23T21:23:34.915Z,101407.59
2022-09-23T21:26:11.810Z,101404.59
2022-09-23T21:28:40.740Z,101416.53
2022-09-23T21:31:28.327Z,101401.91
2022-09-23T21:33:56.556Z,101404.53
2022-09-23T21:36:27.374Z,101407.44
2022-09-23T21:38:55.505Z,101403.72
2022-09-23T21:41:22.409Z,101396.59
2022-09-23T21:43:49.733Z,101398.44
2022-09-23T21:46:21.261Z,101396.13
2022-09-23T21:48:52.868Z,101392.41
2022-09-23T21:51:23.203Z,101396.44
2022-09-23T21:53:49.808Z,101398.00
2022-09-23T21:56:20.889Z,101396.00
2022-09-23T21:58:48.232Z,101395.59
2022-09-23T22:01:17.640Z,101398.22
2022-09-23T22:03:48.842Z,101401.91
2022-09-23T22:06:20.323Z,101394.75
2022-09-23T22:08:52.391Z,101397.31
2022-09-23T22:11:40.468Z,101395.09
2022-09-23T22:14:09.633Z,101395.38
2022-09-23T22:16:36.906Z,101398.00
2022-09-23T22:19:06.903Z,101391.22
2022-09-23T22:21:36.583Z,101396.19
2022-09-23T22:24:05.445Z,101396.50
2022-09-23T22:26:34.581Z,101394.81
2022-09-23T22:29:19.734Z,101395.56
2022-09-23T22:32:04.613Z,101396.66
2022-09-23T22:34:49.110Z,101389.16
2022-09-23T22:37:18.809Z,101390.50
2022-09-23T22:39:45.738Z,101386.09
2022-09-23T22:42:16.171Z,101389.75
2022-09-23T22:44:42.683Z,101383.59
2022-09-23T22:47:10.309Z,101389.59
2022-09-23T22:49:37.044Z,101386.22
2022-09-23T22:52:07.057Z,101389.19
2022-09-23T22:54:34.328Z,101385.50
2022-09-23T22:57:03.300Z,101379.59
2022-09-23T22:59:30.026Z,101378.00
2022-09-23T23:01:57.224Z,101381.31
2022-09-23T23:04:23.835Z,101376.56
2022-09-23T23:06:50.323Z,101385.09
2022-09-23T23:09:18.442Z,101373.81
2022-09-23T23:11:45.481Z,101372.25
2022-09-23T23:14:14.338Z,101373.09
2022-09-23T23:16:40.926Z,101370.78
2022-09-23T23:19:13.201Z,101364.03
2022-09-23T23:21:43.352Z,101364.44
2022-09-23T23:24:22.239Z,101364.38
2022-09-23T23:26:49.587Z,101355.69
2022-09-23T23:29:18.139Z,101359.06
2022-09-23T23:31:44.972Z,101362.09
2022-09-23T23:34:13.676Z,101356.44
2022-09-23T23:36:41.506Z,101358.97
2022-09-23T23:39:08.112Z,101358.28
2022-09-23T23:41:34.692Z,101358.28
2022-09-23T23:44:01.637Z,101357.88
2022-09-23T23:46:30.354Z,101360.59
2022-09-23T23:48:58.171Z,101357.44
2022-09-23T23:51:28.509Z,101361.19
2022-09-23T23:53:55.998Z,101362.63
2022-09-23T23:56:24.779Z,101359.31
2022-09-23T23:58:59.885Z,101357.78
